sensor_id;sensor_type;location;lat;lon;timestamp;temperature;humidity
79020;DHT22;72857;44.740;37.770;2024-02-21T00:00:10;3.26;67.16
79020;DHT22;72857;44.740;37.770;2024-02-21T00:01:16;3.27;67.16
79020;DHT22;72857;44.740;37.770;2024-02-21T00:02:18;3.24;67.19
79020;DHT22;72857;44.740;37.770;2024-02-21T00:03:19;3.23;67.32
79020;DHT22;72857;44.740;37.770;2024-02-21T00:04:21;3.23;67.51
79020;DHT22;72857;44.740;37.770;2024-02-21T00:05:23;3.21;67.61
79020;DHT22;72857;44.740;37.770;2024-02-21T00:06:24;3.26;67.50
79020;DHT22;72857;44.740;37.770;2024-02-21T00:07:27;3.24;67.59
79020;DHT22;72857;44.740;37.770;2024-02-21T00:08:29;3.28;67.55
79020;DHT22;72857;44.740;37.770;2024-02-21T00:09:30;3.24;67.52
79020;DHT22;72857;44.740;37.770;2024-02-21T00:10:32;3.24;67.45
79020;DHT22;72857;44.740;37.770;2024-02-21T00:11:34;3.24;67.50
79020;DHT22;72857;44.740;37.770;2024-02-21T00:12:35;3.21;67.51
79020;DHT22;72857;44.740;37.770;2024-02-21T00:13:37;3.21;67.70
79020;DHT22;72857;44.740;37.770;2024-02-21T00:14:38;3.24;67.88
79020;DHT22;72857;44.740;37.770;2024-02-21T00:15:40;3.26;67.79
79020;DHT22;72857;44.740;37.770;2024-02-21T00:16:41;3.24;67.67
79020;DHT22;72857;44.740;37.770;2024-02-21T00:17:44;3.24;67.77
79020;DHT22;72857;44.740;37.770;2024-02-21T00:18:45;3.18;67.74
79020;DHT22;72857;44.740;37.770;2024-02-21T00:19:47;3.17;67.92
79020;DHT22;72857;44.740;37.770;2024-02-21T00:20:48;3.21;67.89
79020;DHT22;72857;44.740;37.770;2024-02-21T00:21:49;3.24;67.94
79020;DHT22;72857;44.740;37.770;2024-02-21T00:22:51;3.28;67.83
79020;DHT22;72857;44.740;37.770;2024-02-21T00:23:53;3.31;67.63
79020;DHT22;72857;44.740;37.770;2024-02-21T00:24:55;3.30;67.72
79020;DHT22;72857;44.740;37.770;2024-02-21T00:25:56;3.32;67.67
79020;DHT22;72857;44.740;37.770;2024-02-21T00:26:57;3.34;67.54
79020;DHT22;72857;44.740;37.770;2024-02-21T00:27:59;3.32;67.70
79020;DHT22;72857;44.740;37.770;2024-02-21T00:29:01;3.35;67.65
79020;DHT22;72857;44.740;37.770;2024-02-21T00:30:03;3.32;67.52
79020;DHT22;72857;44.740;37.770;2024-02-21T00:31:04;3.31;67.65
79020;DHT22;72857;44.740;37.770;2024-02-21T00:32:06;3.32;67.83
79020;DHT22;72857;44.740;37.770;2024-02-21T00:33:08;3.37;67.81
79020;DHT22;72857;44.740;37.770;2024-02-21T00:34:09;3.37;67.56
79020;DHT22;72857;44.740;37.770;2024-02-21T00:35:11;3.38;67.63
79020;DHT22;72857;44.740;37.770;2024-02-21T00:36:13;3.37;67.68
79020;DHT22;72857;44.740;37.770;2024-02-21T00:37:16;3.37;67.54
79020;DHT22;72857;44.740;37.770;2024-02-21T00:38:17;3.40;67.37
79020;DHT22;72857;44.740;37.770;2024-02-21T00:39:18;3.41;67.40
79020;DHT22;72857;44.740;37.770;2024-02-21T00:40:20;3.44;67.26
79020;DHT22;72857;44.740;37.770;2024-02-21T00:41:23;3.44;67.18
79020;DHT22;72857;44.740;37.770;2024-02-21T00:42:24;3.42;67.31
79020;DHT22;72857;44.740;37.770;2024-02-21T00:43:26;3.44;67.50
79020;DHT22;72857;44.740;37.770;2024-02-21T00:44:27;3.37;67.31
79020;DHT22;72857;44.740;37.770;2024-02-21T00:45:29;3.34;67.69
79020;DHT22;72857;44.740;37.770;2024-02-21T00:46:31;3.35;67.88
79020;DHT22;72857;44.740;37.770;2024-02-21T00:47:32;3.37;67.73
79020;DHT22;72857;44.740;37.770;2024-02-21T00:48:34;3.38;67.63
79020;DHT22;72857;44.740;37.770;2024-02-21T00:49:36;3.40;67.64
79020;DHT22;72857;44.740;37.770;2024-02-21T00:50:37;3.37;67.63
79020;DHT22;72857;44.740;37.770;2024-02-21T00:51:39;3.35;67.59
79020;DHT22;72857;44.740;37.770;2024-02-21T00:52:40;3.37;67.53
79020;DHT22;72857;44.740;37.770;2024-02-21T00:53:42;3.35;67.59
79020;DHT22;72857;44.740;37.770;2024-02-21T00:54:44;3.35;67.71
79020;DHT22;72857;44.740;37.770;2024-02-21T00:55:45;3.35;67.76
79020;DHT22;72857;44.740;37.770;2024-02-21T00:56:47;3.35;67.69
79020;DHT22;72857;44.740;37.770;2024-02-21T00:57:48;3.34;67.82
79020;DHT22;72857;44.740;37.770;2024-02-21T00:58:50;3.32;67.74
79020;DHT22;72857;44.740;37.770;2024-02-21T00:59:51;3.30;67.75
79020;DHT22;72857;44.740;37.770;2024-02-21T01:00:53;3.30;67.75
79020;DHT22;72857;44.740;37.770;2024-02-21T01:01:54;3.28;67.78
79020;DHT22;72857;44.740;37.770;2024-02-21T01:02:55;3.30;67.62
79020;DHT22;72857;44.740;37.770;2024-02-21T01:03:57;3.24;67.80
79020;DHT22;72857;44.740;37.770;2024-02-21T01:04:58;3.16;68.27
79020;DHT22;72857;44.740;37.770;2024-02-21T01:06:00;3.11;68.58
79020;DHT22;72857;44.740;37.770;2024-02-21T01:07:02;3.07;68.71
79020;DHT22;72857;44.740;37.770;2024-02-21T01:08:04;3.09;68.52
79020;DHT22;72857;44.740;37.770;2024-02-21T01:09:05;3.10;68.40
79020;DHT22;72857;44.740;37.770;2024-02-21T01:10:07;3.13;68.50
79020;DHT22;72857;44.740;37.770;2024-02-21T01:11:09;3.10;68.35
79020;DHT22;72857;44.740;37.770;2024-02-21T01:12:10;3.06;68.44
79020;DHT22;72857;44.740;37.770;2024-02-21T01:13:12;3.10;68.52
79020;DHT22;72857;44.740;37.770;2024-02-21T01:14:13;3.09;68.43
79020;DHT22;72857;44.740;37.770;2024-02-21T01:15:15;3.07;68.43
79020;DHT22;72857;44.740;37.770;2024-02-21T01:16:16;3.10;68.52
79020;DHT22;72857;44.740;37.770;2024-02-21T01:17:17;3.07;68.39
79020;DHT22;72857;44.740;37.770;2024-02-21T01:18:19;3.04;68.42
79020;DHT22;72857;44.740;37.770;2024-02-21T01:19:20;3.03;68.41
79020;DHT22;72857;44.740;37.770;2024-02-21T01:20:22;3.03;68.53
79020;DHT22;72857;44.740;37.770;2024-02-21T01:21:23;3.03;68.47
79020;DHT22;72857;44.740;37.770;2024-02-21T01:22:24;3.03;68.64
79020;DHT22;72857;44.740;37.770;2024-02-21T01:23:26;3.01;68.51
79020;DHT22;72857;44.740;37.770;2024-02-21T01:24:27;3.03;68.58
79020;DHT22;72857;44.740;37.770;2024-02-21T01:25:29;3.00;68.65
79020;DHT22;72857;44.740;37.770;2024-02-21T01:26:30;3.06;68.67
79020;DHT22;72857;44.740;37.770;2024-02-21T01:27:32;3.04;68.62
79020;DHT22;72857;44.740;37.770;2024-02-21T01:28:33;3.01;68.74
79020;DHT22;72857;44.740;37.770;2024-02-21T01:29:35;3.00;68.89
79020;DHT22;72857;44.740;37.770;2024-02-21T01:30:36;3.01;69.00
79020;DHT22;72857;44.740;37.770;2024-02-21T01:31:38;2.97;68.97
79020;DHT22;72857;44.740;37.770;2024-02-21T01:32:39;3.00;69.14
79020;DHT22;72857;44.740;37.770;2024-02-21T01:33:41;3.00;68.98
79020;DHT22;72857;44.740;37.770;2024-02-21T01:34:43;3.00;68.88
79020;DHT22;72857;44.740;37.770;2024-02-21T01:35:45;2.97;68.82
79020;DHT22;72857;44.740;37.770;2024-02-21T01:36:46;2.96;68.73
79020;DHT22;72857;44.740;37.770;2024-02-21T01:37:48;2.96;68.86
79020;DHT22;72857;44.740;37.770;2024-02-21T01:38:50;2.92;68.88
79020;DHT22;72857;44.740;37.770;2024-02-21T01:39:51;2.90;69.25
79020;DHT22;72857;44.740;37.770;2024-02-21T01:40:52;2.93;69.29
79020;DHT22;72857;44.740;37.770;2024-02-21T01:41:54;2.92;69.11
79020;DHT22;72857;44.740;37.770;2024-02-21T01:42:56;2.95;69.03
79020;DHT22;72857;44.740;37.770;2024-02-21T01:43:57;2.92;69.05
79020;DHT22;72857;44.740;37.770;2024-02-21T01:44:59;2.92;69.15
79020;DHT22;72857;44.740;37.770;2024-02-21T01:46:00;2.96;69.21
79020;DHT22;72857;44.740;37.770;2024-02-21T01:47:02;2.92;69.25
79020;DHT22;72857;44.740;37.770;2024-02-21T01:48:04;2.95;69.26
79020;DHT22;72857;44.740;37.770;2024-02-21T01:49:06;2.86;69.27
79020;DHT22;72857;44.740;37.770;2024-02-21T01:50:08;2.85;69.55
79020;DHT22;72857;44.740;37.770;2024-02-21T01:51:09;2.88;69.44
79020;DHT22;72857;44.740;37.770;2024-02-21T01:52:12;2.83;69.43
79020;DHT22;72857;44.740;37.770;2024-02-21T01:53:17;2.82;69.42
79020;DHT22;72857;44.740;37.770;2024-02-21T01:54:19;2.85;69.46
79020;DHT22;72857;44.740;37.770;2024-02-21T01:55:21;2.83;69.42
79020;DHT22;72857;44.740;37.770;2024-02-21T01:56:23;2.82;69.45
79020;DHT22;72857;44.740;37.770;2024-02-21T01:57:25;2.82;69.60
79020;DHT22;72857;44.740;37.770;2024-02-21T01:58:27;2.82;69.69
79020;DHT22;72857;44.740;37.770;2024-02-21T01:59:30;2.82;69.92
79020;DHT22;72857;44.740;37.770;2024-02-21T02:00:32;2.82;69.85
79020;DHT22;72857;44.740;37.770;2024-02-21T02:01:34;2.83;69.85
79020;DHT22;72857;44.740;37.770;2024-02-21T02:02:37;2.82;69.85
79020;DHT22;72857;44.740;37.770;2024-02-21T02:03:39;2.79;69.92
79020;DHT22;72857;44.740;37.770;2024-02-21T02:04:41;2.80;69.96
79020;DHT22;72857;44.740;37.770;2024-02-21T02:05:46;2.80;69.81
79020;DHT22;72857;44.740;37.770;2024-02-21T02:06:48;2.78;69.86
79020;DHT22;72857;44.740;37.770;2024-02-21T02:07:50;2.82;69.85
79020;DHT22;72857;44.740;37.770;2024-02-21T02:08:52;2.85;69.68
79020;DHT22;72857;44.740;37.770;2024-02-21T02:09:54;2.85;69.56
79020;DHT22;72857;44.740;37.770;2024-02-21T02:10:55;2.85;69.59
79020;DHT22;72857;44.740;37.770;2024-02-21T02:11:57;2.82;69.67
79020;DHT22;72857;44.740;37.770;2024-02-21T02:12:59;2.83;69.81
79020;DHT22;72857;44.740;37.770;2024-02-21T02:14:01;2.85;70.00
79020;DHT22;72857;44.740;37.770;2024-02-21T02:15:03;2.83;69.97
79020;DHT22;72857;44.740;37.770;2024-02-21T02:16:07;2.80;70.01
79020;DHT22;72857;44.740;37.770;2024-02-21T02:17:09;2.82;69.88
79020;DHT22;72857;44.740;37.770;2024-02-21T02:18:12;2.79;69.85
79020;DHT22;72857;44.740;37.770;2024-02-21T02:19:13;2.76;69.92
79020;DHT22;72857;44.740;37.770;2024-02-21T02:20:17;2.75;70.13
79020;DHT22;72857;44.740;37.770;2024-02-21T02:21:39;2.76;70.08
79020;DHT22;72857;44.740;37.770;2024-02-21T02:22:43;2.73;70.23
79020;DHT22;72857;44.740;37.770;2024-02-21T02:23:45;2.75;70.25
79020;DHT22;72857;44.740;37.770;2024-02-21T02:24:46;2.73;70.25
79020;DHT22;72857;44.740;37.770;2024-02-21T02:25:48;2.73;70.22
79020;DHT22;72857;44.740;37.770;2024-02-21T02:26:52;2.71;70.30
79020;DHT22;72857;44.740;37.770;2024-02-21T02:27:54;2.68;70.39
79020;DHT22;72857;44.740;37.770;2024-02-21T02:28:55;2.68;70.37
79020;DHT22;72857;44.740;37.770;2024-02-21T02:29:56;2.66;70.55
79020;DHT22;72857;44.740;37.770;2024-02-21T02:30:58;2.69;70.60
79020;DHT22;72857;44.740;37.770;2024-02-21T02:31:59;2.72;70.59
79020;DHT22;72857;44.740;37.770;2024-02-21T02:33:04;2.73;70.46
79020;DHT22;72857;44.740;37.770;2024-02-21T02:34:06;2.72;70.40
79020;DHT22;72857;44.740;37.770;2024-02-21T02:35:07;2.72;70.71
79020;DHT22;72857;44.740;37.770;2024-02-21T02:36:09;2.72;70.66
79020;DHT22;72857;44.740;37.770;2024-02-21T02:37:11;2.79;70.37
79020;DHT22;72857;44.740;37.770;2024-02-21T02:38:12;2.78;70.24
79020;DHT22;72857;44.740;37.770;2024-02-21T02:39:14;2.78;70.30
79020;DHT22;72857;44.740;37.770;2024-02-21T02:40:17;2.80;70.07
79020;DHT22;72857;44.740;37.770;2024-02-21T02:41:18;2.83;70.14
79020;DHT22;72857;44.740;37.770;2024-02-21T02:42:19;2.90;69.99
79020;DHT22;72857;44.740;37.770;2024-02-21T02:43:21;2.90;69.86
79020;DHT22;72857;44.740;37.770;2024-02-21T02:44:22;2.89;69.99
79020;DHT22;72857;44.740;37.770;2024-02-21T02:45:24;2.97;70.09
79020;DHT22;72857;44.740;37.770;2024-02-21T02:46:27;2.96;69.88
79020;DHT22;72857;44.740;37.770;2024-02-21T02:47:28;2.93;69.88
79020;DHT22;72857;44.740;37.770;2024-02-21T02:48:30;2.96;69.89
79020;DHT22;72857;44.740;37.770;2024-02-21T02:49:31;2.96;69.82
79020;DHT22;72857;44.740;37.770;2024-02-21T02:50:33;2.95;69.77
79020;DHT22;72857;44.740;37.770;2024-02-21T02:51:34;2.97;69.90
79020;DHT22;72857;44.740;37.770;2024-02-21T02:52:36;3.00;69.91
79020;DHT22;72857;44.740;37.770;2024-02-21T02:53:37;3.03;69.86
79020;DHT22;72857;44.740;37.770;2024-02-21T02:54:39;3.06;69.76
79020;DHT22;72857;44.740;37.770;2024-02-21T02:55:40;3.09;69.63
79020;DHT22;72857;44.740;37.770;2024-02-21T02:56:41;3.13;69.44
79020;DHT22;72857;44.740;37.770;2024-02-21T02:57:43;3.11;69.48
79020;DHT22;72857;44.740;37.770;2024-02-21T02:58:44;3.10;69.37
79020;DHT22;72857;44.740;37.770;2024-02-21T02:59:49;3.10;69.31
79020;DHT22;72857;44.740;37.770;2024-02-21T03:00:51;3.13;69.43
79020;DHT22;72857;44.740;37.770;2024-02-21T03:01:53;3.16;69.44
79020;DHT22;72857;44.740;37.770;2024-02-21T03:02:54;3.18;69.40
79020;DHT22;72857;44.740;37.770;2024-02-21T03:03:55;3.20;69.42
79020;DHT22;72857;44.740;37.770;2024-02-21T03:04:57;3.18;69.20
79020;DHT22;72857;44.740;37.770;2024-02-21T03:05:58;3.24;69.27
79020;DHT22;72857;44.740;37.770;2024-02-21T03:07:00;3.24;69.24
79020;DHT22;72857;44.740;37.770;2024-02-21T03:08:02;3.26;69.18
79020;DHT22;72857;44.740;37.770;2024-02-21T03:09:08;3.27;69.12
79020;DHT22;72857;44.740;37.770;2024-02-21T03:10:14;3.28;69.17
79020;DHT22;72857;44.740;37.770;2024-02-21T03:11:17;3.30;69.13
79020;DHT22;72857;44.740;37.770;2024-02-21T03:12:18;3.34;68.92
79020;DHT22;72857;44.740;37.770;2024-02-21T03:13:26;3.32;68.93
79020;DHT22;72857;44.740;37.770;2024-02-21T03:14:27;3.37;69.11
79020;DHT22;72857;44.740;37.770;2024-02-21T03:15:29;3.37;69.01
79020;DHT22;72857;44.740;37.770;2024-02-21T03:16:30;3.38;69.04
79020;DHT22;72857;44.740;37.770;2024-02-21T03:17:32;3.44;69.16
79020;DHT22;72857;44.740;37.770;2024-02-21T03:18:37;3.47;68.85
79020;DHT22;72857;44.740;37.770;2024-02-21T03:19:38;3.47;68.57
79020;DHT22;72857;44.740;37.770;2024-02-21T03:20:40;3.48;68.68
79020;DHT22;72857;44.740;37.770;2024-02-21T03:21:42;3.48;68.53
79020;DHT22;72857;44.740;37.770;2024-02-21T03:22:43;3.51;68.44
79020;DHT22;72857;44.740;37.770;2024-02-21T03:23:44;3.48;68.36
79020;DHT22;72857;44.740;37.770;2024-02-21T03:24:46;3.47;68.48
79020;DHT22;72857;44.740;37.770;2024-02-21T03:25:47;3.50;68.59
79020;DHT22;72857;44.740;37.770;2024-02-21T03:26:49;3.50;68.49
79020;DHT22;72857;44.740;37.770;2024-02-21T03:27:51;3.52;68.62
79020;DHT22;72857;44.740;37.770;2024-02-21T03:28:53;3.54;68.64
79020;DHT22;72857;44.740;37.770;2024-02-21T03:29:54;3.55;68.41
79020;DHT22;72857;44.740;37.770;2024-02-21T03:30:56;3.55;68.24
79020;DHT22;72857;44.740;37.770;2024-02-21T03:31:57;3.54;68.22
79020;DHT22;72857;44.740;37.770;2024-02-21T03:32:59;3.58;68.49
79020;DHT22;72857;44.740;37.770;2024-02-21T03:34:00;3.58;68.44
79020;DHT22;72857;44.740;37.770;2024-02-21T03:35:02;3.59;68.17
79020;DHT22;72857;44.740;37.770;2024-02-21T03:36:04;3.57;68.08
79020;DHT22;72857;44.740;37.770;2024-02-21T03:37:05;3.57;68.37
79020;DHT22;72857;44.740;37.770;2024-02-21T03:38:07;3.57;68.27
79020;DHT22;72857;44.740;37.770;2024-02-21T03:39:08;3.55;68.34
79020;DHT22;72857;44.740;37.770;2024-02-21T03:40:10;3.54;68.53
79020;DHT22;72857;44.740;37.770;2024-02-21T03:41:12;3.57;68.39
79020;DHT22;72857;44.740;37.770;2024-02-21T03:42:13;3.52;68.19
79020;DHT22;72857;44.740;37.770;2024-02-21T03:43:15;3.52;68.26
79020;DHT22;72857;44.740;37.770;2024-02-21T03:44:16;3.52;68.50
79020;DHT22;72857;44.740;37.770;2024-02-21T03:45:18;3.54;68.61
79020;DHT22;72857;44.740;37.770;2024-02-21T03:46:19;3.55;68.27
79020;DHT22;72857;44.740;37.770;2024-02-21T03:47:21;3.51;68.41
79020;DHT22;72857;44.740;37.770;2024-02-21T03:48:24;3.50;68.61
79020;DHT22;72857;44.740;37.770;2024-02-21T03:49:26;3.50;68.46
79020;DHT22;72857;44.740;37.770;2024-02-21T03:50:27;3.52;68.45
79020;DHT22;72857;44.740;37.770;2024-02-21T03:51:29;3.51;68.29
79020;DHT22;72857;44.740;37.770;2024-02-21T03:52:31;3.55;68.35
79020;DHT22;72857;44.740;37.770;2024-02-21T03:53:33;3.54;68.09
79020;DHT22;72857;44.740;37.770;2024-02-21T03:54:34;3.48;68.20
79020;DHT22;72857;44.740;37.770;2024-02-21T03:55:36;3.50;68.49
79020;DHT22;72857;44.740;37.770;2024-02-21T03:56:38;3.50;68.61
79020;DHT22;72857;44.740;37.770;2024-02-21T03:57:40;3.47;68.50
79020;DHT22;72857;44.740;37.770;2024-02-21T03:58:42;3.45;68.56
79020;DHT22;72857;44.740;37.770;2024-02-21T03:59:43;3.45;68.61
79020;DHT22;72857;44.740;37.770;2024-02-21T04:00:45;3.41;68.71
79020;DHT22;72857;44.740;37.770;2024-02-21T04:01:46;3.41;68.66
79020;DHT22;72857;44.740;37.770;2024-02-21T04:02:48;3.37;68.80
79020;DHT22;72857;44.740;37.770;2024-02-21T04:03:49;3.40;68.46
79020;DHT22;72857;44.740;37.770;2024-02-21T04:04:51;3.40;68.16
79020;DHT22;72857;44.740;37.770;2024-02-21T04:05:52;3.40;68.23
79020;DHT22;72857;44.740;37.770;2024-02-21T04:06:54;3.41;68.23
79020;DHT22;72857;44.740;37.770;2024-02-21T04:07:55;3.44;68.37
79020;DHT22;72857;44.740;37.770;2024-02-21T04:08:57;3.45;68.31
79020;DHT22;72857;44.740;37.770;2024-02-21T04:09:58;3.48;68.16
79020;DHT22;72857;44.740;37.770;2024-02-21T04:11:00;3.48;67.91
79020;DHT22;72857;44.740;37.770;2024-02-21T04:12:01;3.45;67.83
79020;DHT22;72857;44.740;37.770;2024-02-21T04:13:06;3.47;67.93
79020;DHT22;72857;44.740;37.770;2024-02-21T04:14:07;3.45;68.14
79020;DHT22;72857;44.740;37.770;2024-02-21T04:15:09;3.47;67.88
79020;DHT22;72857;44.740;37.770;2024-02-21T04:16:10;3.47;67.99
79020;DHT22;72857;44.740;37.770;2024-02-21T04:17:12;3.71;71.92
79020;DHT22;72857;44.740;37.770;2024-02-21T04:18:13;3.82;68.70
79020;DHT22;72857;44.740;37.770;2024-02-21T04:19:16;3.74;67.29
79020;DHT22;72857;44.740;37.770;2024-02-21T04:20:17;3.68;67.34
79020;DHT22;72857;44.740;37.770;2024-02-21T04:21:19;3.64;67.32
79020;DHT22;72857;44.740;37.770;2024-02-21T04:22:20;3.64;67.35
79020;DHT22;72857;44.740;37.770;2024-02-21T04:23:22;3.61;67.22
79020;DHT22;72857;44.740;37.770;2024-02-21T04:24:24;3.57;67.48
79020;DHT22;72857;44.740;37.770;2024-02-21T04:25:25;3.52;67.50
79020;DHT22;72857;44.740;37.770;2024-02-21T04:26:27;3.44;67.53
79020;DHT22;72857;44.740;37.770;2024-02-21T04:27:29;3.37;67.67
79020;DHT22;72857;44.740;37.770;2024-02-21T04:28:30;3.28;68.18
79020;DHT22;72857;44.740;37.770;2024-02-21T04:29:32;3.24;68.20
79020;DHT22;72857;44.740;37.770;2024-02-21T04:30:34;3.16;68.23
79020;DHT22;72857;44.740;37.770;2024-02-21T04:31:35;3.11;68.26
79020;DHT22;72857;44.740;37.770;2024-02-21T04:32:37;3.07;68.69
79020;DHT22;72857;44.740;37.770;2024-02-21T04:33:39;3.01;68.62
79020;DHT22;72857;44.740;37.770;2024-02-21T04:34:41;3.00;68.37
79020;DHT22;72857;44.740;37.770;2024-02-21T04:35:43;3.07;68.30
79020;DHT22;72857;44.740;37.770;2024-02-21T04:36:44;3.04;68.15
79020;DHT22;72857;44.740;37.770;2024-02-21T04:37:46;3.04;68.36
79020;DHT22;72857;44.740;37.770;2024-02-21T04:38:48;3.00;67.77
79020;DHT22;72857;44.740;37.770;2024-02-21T04:39:50;3.04;67.12
79020;DHT22;72857;44.740;37.770;2024-02-21T04:40:52;3.06;67.67
79020;DHT22;72857;44.740;37.770;2024-02-21T04:41:53;3.07;67.99
79020;DHT22;72857;44.740;37.770;2024-02-21T04:42:55;3.06;67.99
79020;DHT22;72857;44.740;37.770;2024-02-21T04:43:56;3.10;67.92
79020;DHT22;72857;44.740;37.770;2024-02-21T04:44:57;3.11;67.98
79020;DHT22;72857;44.740;37.770;2024-02-21T04:45:59;3.11;67.91
79020;DHT22;72857;44.740;37.770;2024-02-21T04:47:01;3.13;67.49
79020;DHT22;72857;44.740;37.770;2024-02-21T04:48:04;3.16;67.40
79020;DHT22;72857;44.740;37.770;2024-02-21T04:49:06;3.21;67.25
79020;DHT22;72857;44.740;37.770;2024-02-21T04:50:07;3.20;66.73
79020;DHT22;72857;44.740;37.770;2024-02-21T04:51:09;3.21;66.70
79020;DHT22;72857;44.740;37.770;2024-02-21T04:52:10;3.21;66.47
79020;DHT22;72857;44.740;37.770;2024-02-21T04:53:12;3.27;65.99
79020;DHT22;72857;44.740;37.770;2024-02-21T04:54:17;3.31;65.38
79020;DHT22;72857;44.740;37.770;2024-02-21T04:55:18;3.38;65.46
79020;DHT22;72857;44.740;37.770;2024-02-21T04:56:20;3.42;65.67
79020;DHT22;72857;44.740;37.770;2024-02-21T04:57:21;3.48;65.42
79020;DHT22;72857;44.740;37.770;2024-02-21T04:58:23;3.47;65.76
79020;DHT22;72857;44.740;37.770;2024-02-21T04:59:24;3.52;65.41
79020;DHT22;72857;44.740;37.770;2024-02-21T05:00:26;3.55;65.36
79020;DHT22;72857;44.740;37.770;2024-02-21T05:01:28;3.58;65.29
79020;DHT22;72857;44.740;37.770;2024-02-21T05:02:30;3.54;65.87
79020;DHT22;72857;44.740;37.770;2024-02-21T05:03:31;3.47;66.62
79020;DHT22;72857;44.740;37.770;2024-02-21T05:04:33;3.45;66.99
79020;DHT22;72857;44.740;37.770;2024-02-21T05:05:35;3.44;66.79
79020;DHT22;72857;44.740;37.770;2024-02-21T05:06:40;3.47;66.55
79020;DHT22;72857;44.740;37.770;2024-02-21T05:07:43;3.52;66.49
79020;DHT22;72857;44.740;37.770;2024-02-21T05:08:44;3.55;66.35
79020;DHT22;72857;44.740;37.770;2024-02-21T05:09:46;3.61;66.18
79020;DHT22;72857;44.740;37.770;2024-02-21T05:10:47;3.67;65.63
79020;DHT22;72857;44.740;37.770;2024-02-21T05:11:48;3.69;65.75
79020;DHT22;72857;44.740;37.770;2024-02-21T05:12:50;3.75;65.78
79020;DHT22;72857;44.740;37.770;2024-02-21T05:13:51;3.85;65.71
79020;DHT22;72857;44.740;37.770;2024-02-21T05:14:53;3.86;65.50
79020;DHT22;72857;44.740;37.770;2024-02-21T05:15:54;3.96;65.11
79020;DHT22;72857;44.740;37.770;2024-02-21T05:16:56;3.96;64.66
79020;DHT22;72857;44.740;37.770;2024-02-21T05:17:57;4.00;64.65
79020;DHT22;72857;44.740;37.770;2024-02-21T05:18:59;4.05;64.39
79020;DHT22;72857;44.740;37.770;2024-02-21T05:20:00;4.05;64.11
79020;DHT22;72857;44.740;37.770;2024-02-21T05:21:02;4.13;64.18
79020;DHT22;72857;44.740;37.770;2024-02-21T05:22:04;4.19;63.64
79020;DHT22;72857;44.740;37.770;2024-02-21T05:23:05;4.21;63.64
79020;DHT22;72857;44.740;37.770;2024-02-21T05:24:07;4.28;63.42
79020;DHT22;72857;44.740;37.770;2024-02-21T05:25:09;4.33;62.78
79020;DHT22;72857;44.740;37.770;2024-02-21T05:26:10;4.36;62.54
79020;DHT22;72857;44.740;37.770;2024-02-21T05:27:12;4.40;62.88
79020;DHT22;72857;44.740;37.770;2024-02-21T05:28:13;4.49;62.79
79020;DHT22;72857;44.740;37.770;2024-02-21T05:29:15;4.56;62.34
79020;DHT22;72857;44.740;37.770;2024-02-21T05:30:16;4.67;62.00
79020;DHT22;72857;44.740;37.770;2024-02-21T05:31:18;4.70;62.13
79020;DHT22;72857;44.740;37.770;2024-02-21T05:32:20;4.77;61.45
79020;DHT22;72857;44.740;37.770;2024-02-21T05:33:21;4.81;61.18
79020;DHT22;72857;44.740;37.770;2024-02-21T05:34:25;4.87;59.68
79020;DHT22;72857;44.740;37.770;2024-02-21T05:35:28;4.92;60.22
79020;DHT22;72857;44.740;37.770;2024-02-21T05:36:29;4.92;61.09
79020;DHT22;72857;44.740;37.770;2024-02-21T05:37:31;4.93;61.41
79020;DHT22;72857;44.740;37.770;2024-02-21T05:38:32;4.89;61.95
79020;DHT22;72857;44.740;37.770;2024-02-21T05:39:34;4.95;61.96
79020;DHT22;72857;44.740;37.770;2024-02-21T05:40:35;4.92;61.54
79020;DHT22;72857;44.740;37.770;2024-02-21T05:41:37;4.92;61.16
79020;DHT22;72857;44.740;37.770;2024-02-21T05:42:38;4.96;61.35
79020;DHT22;72857;44.740;37.770;2024-02-21T05:43:40;4.95;60.55
79020;DHT22;72857;44.740;37.770;2024-02-21T05:44:41;4.98;60.38
79020;DHT22;72857;44.740;37.770;2024-02-21T05:45:43;5.04;60.93
79020;DHT22;72857;44.740;37.770;2024-02-21T05:46:44;4.95;60.79
79020;DHT22;72857;44.740;37.770;2024-02-21T05:47:46;4.93;61.07
79020;DHT22;72857;44.740;37.770;2024-02-21T05:48:47;4.92;61.70
79020;DHT22;72857;44.740;37.770;2024-02-21T05:49:49;4.96;61.85
79020;DHT22;72857;44.740;37.770;2024-02-21T05:50:54;5.02;61.71
79020;DHT22;72857;44.740;37.770;2024-02-21T05:51:56;5.12;61.32
79020;DHT22;72857;44.740;37.770;2024-02-21T05:52:57;5.22;61.06
79020;DHT22;72857;44.740;37.770;2024-02-21T05:54:00;5.30;60.15
79020;DHT22;72857;44.740;37.770;2024-02-21T05:55:01;5.38;59.72
79020;DHT22;72857;44.740;37.770;2024-02-21T05:56:03;5.46;59.85
79020;DHT22;72857;44.740;37.770;2024-02-21T05:57:08;5.50;59.17
79020;DHT22;72857;44.740;37.770;2024-02-21T05:58:09;5.56;59.27
79020;DHT22;72857;44.740;37.770;2024-02-21T05:59:14;5.63;58.50
79020;DHT22;72857;44.740;37.770;2024-02-21T06:00:16;5.70;58.18
79020;DHT22;72857;44.740;37.770;2024-02-21T06:01:18;5.77;58.38
79020;DHT22;72857;44.740;37.770;2024-02-21T06:02:19;5.84;57.54
79020;DHT22;72857;44.740;37.770;2024-02-21T06:03:21;5.81;56.77
79020;DHT22;72857;44.740;37.770;2024-02-21T06:04:22;5.83;56.39
79020;DHT22;72857;44.740;37.770;2024-02-21T06:05:24;5.93;56.79
79020;DHT22;72857;44.740;37.770;2024-02-21T06:06:25;6.01;56.18
79020;DHT22;72857;44.740;37.770;2024-02-21T06:07:27;6.12;56.23
79020;DHT22;72857;44.740;37.770;2024-02-21T06:08:28;6.12;55.86
79020;DHT22;72857;44.740;37.770;2024-02-21T06:09:30;6.08;55.95
79020;DHT22;72857;44.740;37.770;2024-02-21T06:10:31;6.14;56.62
79020;DHT22;72857;44.740;37.770;2024-02-21T06:11:33;6.14;57.05
79020;DHT22;72857;44.740;37.770;2024-02-21T06:12:36;6.21;55.89
79020;DHT22;72857;44.740;37.770;2024-02-21T06:13:40;6.26;56.03
79020;DHT22;72857;44.740;37.770;2024-02-21T06:14:42;6.38;55.91
79020;DHT22;72857;44.740;37.770;2024-02-21T06:15:44;6.36;54.87
79020;DHT22;72857;44.740;37.770;2024-02-21T06:16:45;6.33;54.60
79020;DHT22;72857;44.740;37.770;2024-02-21T06:17:47;6.35;53.58
79020;DHT22;72857;44.740;37.770;2024-02-21T06:18:48;6.35;53.95
79020;DHT22;72857;44.740;37.770;2024-02-21T06:19:50;6.35;53.97
79020;DHT22;72857;44.740;37.770;2024-02-21T06:20:51;6.28;54.04
79020;DHT22;72857;44.740;37.770;2024-02-21T06:21:53;6.31;54.30
79020;DHT22;72857;44.740;37.770;2024-02-21T06:22:54;6.35;54.24
79020;DHT22;72857;44.740;37.770;2024-02-21T06:23:56;6.39;54.21
79020;DHT22;72857;44.740;37.770;2024-02-21T06:24:57;6.42;54.53
79020;DHT22;72857;44.740;37.770;2024-02-21T06:25:59;6.59;54.26
79020;DHT22;72857;44.740;37.770;2024-02-21T06:27:00;6.76;54.04
79020;DHT22;72857;44.740;37.770;2024-02-21T06:28:02;6.97;54.06
79020;DHT22;72857;44.740;37.770;2024-02-21T06:29:03;7.14;53.39
79020;DHT22;72857;44.740;37.770;2024-02-21T06:30:05;7.30;53.29